Time;durP1;ratioP1;P1;durP2;ratioP2;P2;SDS_P1;SDS_P2;PMS_P1;PMS_P2;Temp;Humidity;BMP_temperature;BMP_pressure;BME280_temperature;BME280_humidity;BME280_pressure;Samples;Min_cycle;Max_cycle;Signal;HPM_P1;HPM_P2
2022/03/22 00:01:08;;;;;;;40.13;26.88;;;;;;;;;;5073036;28;20365;-60
2022/03/22 00:03:34;;;;;;;38.75;26.27;;;;;;;;;;5090072;28;20215;-60
2022/03/22 00:06:01;;;;;;;38.80;25.23;;;;;;;;;;5091778;28;20146;-60
2022/03/22 00:08:27;;;;;;;40.22;27.70;;;;;;;;;;5091139;28;20051;-59
2022/03/22 00:10:53;;;;;;;44.50;27.98;;;3.50;99.90;;;;;;5092136;28;20035;-60
2022/03/22 00:13:19;;;;;;;38.65;27.40;;;;;;;;;;5090411;28;20047;-59
2022/03/22 00:15:45;;;;;;;41.47;28.10;;;;;;;;;;5092127;28;20078;-59
2022/03/22 00:18:12;;;;;;;46.72;31.60;;;;;;;;;;5091462;28;20043;-59
2022/03/22 00:20:38;;;;;;;48.10;32.63;;;;;;;;;;5091236;28;20086;-60
2022/03/22 00:23:04;;;;;;;47.70;32.22;;;;;;;;;;5092083;28;20130;-60
2022/03/22 00:25:30;;;;;;;45.60;31.80;;;;;;;;;;5091547;28;20085;-59
2022/03/22 00:27:57;;;;;;;44.05;29.23;;;;;;;;;;5091575;28;20032;-60
2022/03/22 00:30:34;;;;;;;45.38;31.85;;;3.50;99.90;;;;;;5092220;28;20366;-59
2022/03/22 00:33:03;;;;;;;40.63;28.38;;;3.50;99.90;;;;;;5091628;28;20039;-60
2022/03/22 00:35:33;;;;;;;40.85;28.60;;;3.40;99.90;;;;;;5092471;28;20075;-60
2022/03/22 00:38:00;;;;;;;45.65;30.25;;;3.30;99.90;;;;;;5093181;28;20082;-60
2022/03/22 00:40:27;;;;;;;52.05;33.70;;;3.50;99.90;;;;;;5093070;28;20031;-60
2022/03/22 00:42:54;;;;;;;45.47;31.33;;;3.20;99.90;;;;;;5092166;28;20507;-60
2022/03/22 00:45:23;;;;;;;47.80;33.47;;;3.40;99.90;;;;;;5092353;28;20718;-59
2022/03/22 00:47:51;;;;;;;45.50;33.00;;;3.20;99.90;;;;;;5073606;28;20672;-60
2022/03/22 00:50:20;;;;;;;49.50;34.53;;;3.40;99.90;;;;;;5093766;28;20156;-60
2022/03/22 00:52:46;;;;;;;47.50;33.17;;;;;;;;;;5096024;28;20032;-60
2022/03/22 00:55:14;;;;;;;48.40;34.75;;;3.60;99.90;;;;;;5096372;28;20070;-60
2022/03/22 00:57:41;;;;;;;51.00;35.60;;;3.30;99.90;;;;;;5095171;28;20054;-60
2022/03/22 01:00:10;;;;;;;48.17;35.25;;;5.40;99.90;;;;;;5094484;28;20051;-60
2022/03/22 01:02:42;;;;;;;51.20;33.78;;;3.70;99.90;;;;;;5093999;28;20132;-60
2022/03/22 01:05:17;;;;;;;52.80;35.23;;;3.60;99.90;;;;;;5094842;28;20048;-60
2022/03/22 01:07:47;;;;;;;46.20;32.53;;;5.50;99.90;;;;;;5075193;28;20503;-60
2022/03/22 01:10:14;;;;;;;49.85;35.75;;;;;;;;;;5094685;28;20519;-59
2022/03/22 01:12:42;;;;;;;48.85;34.47;;;3.60;99.90;;;;;;5093897;28;20054;-60
2022/03/22 01:15:15;;;;;;;51.80;35.35;;;3.80;99.90;;;;;;5094006;28;20058;-60
2022/03/22 01:17:41;;;;;;;51.83;33.78;;;3.70;99.90;;;;;;5094924;28;20116;-60
2022/03/22 01:20:10;;;;;;;45.70;32.67;;;3.60;99.90;;;;;;5094281;28;20597;-60
2022/03/22 01:22:42;;;;;;;46.92;33.13;;;3.70;99.90;;;;;;5095532;28;20045;-60
2022/03/22 01:25:10;;;;;;;46.70;31.75;;;3.60;99.90;;;;;;5094475;28;20032;-60
2022/03/22 01:27:37;;;;;;;63.97;34.35;;;3.40;99.90;;;;;;5094423;28;20051;-59
2022/03/22 01:30:07;;;;;;;45.78;30.73;;;3.40;99.90;;;;;;5093336;28;20032;-60
2022/03/22 01:32:34;;;;;;;40.75;29.58;;;3.50;99.90;;;;;;5094106;28;20047;-60
2022/03/22 01:35:01;;;;;;;46.67;32.53;;;;;;;;;;5094832;28;20054;-60
2022/03/22 01:37:27;;;;;;;57.40;37.45;;;;;;;;;;5094026;28;20720;-60
2022/03/22 01:39:53;;;;;;;44.92;30.88;;;;;;;;;;5095381;28;20046;-60
2022/03/22 01:42:20;;;;;;;39.25;28.17;;;;;;;;;;5094370;28;20039;-60
2022/03/22 01:44:48;;;;;;;48.47;34.10;;;3.40;99.90;;;;;;5095730;28;20039;-60
2022/03/22 01:47:16;;;;;;;46.25;34.35;;;3.50;99.90;;;;;;5094862;28;20043;-60
2022/03/22 01:49:43;;;;;;;42.67;30.55;;;3.40;99.90;;;;;;5094572;28;20101;-60
2022/03/22 01:52:17;;;;;;;44.90;32.28;;;4.00;99.90;;;;;;5096289;28;20643;-59
2022/03/22 01:54:43;;;;;;;45.33;31.35;;;;;;;;;;5094819;28;20039;-60
2022/03/22 01:57:10;;;;;;;43.90;32.03;;;;;;;;;;5096381;28;20112;-60
2022/03/22 01:59:36;;;;;;;47.05;33.97;;;;;;;;;;5094585;28;20130;-60
2022/03/22 02:07:33;;;;;;;43.70;31.23;;;3.30;99.90;;;;;;5093900;28;20148;-60
2022/03/22 02:10:00;;;;;;;40.83;27.85;;;;;;;;;;5093845;28;20050;-60
2022/03/22 02:12:26;;;;;;;50.40;35.38;;;;;;;;;;5094140;28;20114;-60
2022/03/22 02:14:52;;;;;;;42.28;30.98;;;3.00;99.90;;;;;;5095184;28;20047;-60
2022/03/22 02:17:18;;;;;;;46.90;33.13;;;;;;;;;;5093769;28;20027;-59
2022/03/22 02:19:47;;;;;;;44.13;30.77;;;3.10;99.90;;;;;;5093333;28;20039;-60
2022/03/22 02:22:16;;;;;;;53.92;36.03;;;3.20;99.90;;;;;;5093962;28;20100;-60
2022/03/22 02:24:42;;;;;;;43.90;30.38;;;;;;;;;;5092832;28;21172;-60
2022/03/22 02:27:09;;;;;;;42.92;30.40;;;;;;;;;;5094021;28;20074;-59
2022/03/22 02:29:35;;;;;;;46.38;32.58;;;3.40;99.90;;;;;;5093166;28;20484;-58
2022/03/22 02:32:04;;;;;;;46.03;33.88;;;3.10;99.90;;;;;;5075032;28;20047;-61
2022/03/22 02:34:30;;;;;;;48.28;34.42;;;;;;;;;;5092207;28;20501;-60
2022/03/22 02:36:57;;;;;;;46.35;32.92;;;3.00;99.90;;;;;;5093676;28;20147;-60
2022/03/22 02:39:25;;;;;;;43.40;30.20;;;3.10;99.90;;;;;;5093113;28;20036;-60
2022/03/22 02:41:51;;;;;;;41.70;29.92;;;;;;;;;;5092488;28;20036;-59
2022/03/22 02:44:19;;;;;;;44.97;32.45;;;3.10;99.90;;;;;;5092520;28;20932;-60
2022/03/22 02:46:45;;;;;;;45.95;33.00;;;;;;;;;;5093155;28;20120;-60
2022/03/22 02:49:13;;;;;;;52.17;34.33;;;3.00;99.90;;;;;;5093457;28;20047;-60
2022/03/22 02:51:39;;;;;;;50.83;35.88;;;;;;;;;;5091873;28;20043;-60
2022/03/22 02:54:06;;;;;;;51.80;33.70;;;;;;;;;;5092207;28;20043;-60
2022/03/22 02:56:35;;;;;;;53.20;37.50;;;3.10;99.90;;;;;;5091559;28;20047;-61
2022/03/22 02:59:02;;;;;;;59.75;39.95;;;;;;;;;;5091991;28;20785;-60
2022/03/22 03:01:28;;;;;;;52.75;35.83;;;;;;;;;;5092690;28;20096;-61
2022/03/22 03:03:55;;;;;;;54.65;38.60;;;;;;;;;;5091543;28;20522;-60
2022/03/22 03:06:21;;;;;;;50.97;36.25;;;;;;;;;;5091687;28;20071;-61
2022/03/22 03:08:47;;;;;;;52.28;36.90;;;;;;;;;;5091048;28;20842;-60
2022/03/22 03:11:14;;;;;;;58.17;39.83;;;3.20;99.90;;;;;;5093300;28;20048;-60
2022/03/22 03:16:25;;;;;;;51.42;36.88;;;;;;;;;;5092767;28;20120;-61
2022/03/22 03:18:52;;;;;;;58.47;40.92;;;;;;;;;;5092489;28;20040;-62
2022/03/22 03:21:18;;;;;;;54.75;37.58;;;;;;;;;;5093477;28;20068;-60
2022/03/22 03:23:45;;;;;;;56.47;38.55;;;3.10;99.90;;;;;;5092598;28;20578;-60
2022/03/22 03:26:11;;;;;;;55.70;38.42;;;;;;;;;;5092810;28;20047;-60
2022/03/22 03:28:37;;;;;;;54.28;37.60;;;;;;;;;;5093865;28;20627;-61
2022/03/22 03:31:05;;;;;;;54.75;37.17;;;3.20;99.90;;;;;;5093529;28;20062;-60
2022/03/22 03:33:31;;;;;;;63.28;41.13;;;3.10;99.90;;;;;;5093534;28;20066;-61
2022/03/22 03:35:57;;;;;;;53.13;35.90;;;;;;;;;;5093487;28;21000;-61
2022/03/22 03:38:25;;;;;;;50.72;35.28;;;3.00;99.90;;;;;;5092715;28;20058;-61
2022/03/22 03:43:36;;;;;;;49.20;33.75;;;;;;;;;;5092375;28;20051;-60
2022/03/22 03:48:49;;;;;;;54.38;38.58;;;3.10;99.90;;;;;;5091751;28;20130;-61
2022/03/22 03:51:15;;;;;;;49.47;34.35;;;;;;;;;;5092514;28;20049;-61
2022/03/22 03:53:41;;;;;;;44.35;31.90;;;;;;;;;;5091157;28;20032;-60
2022/03/22 03:56:07;;;;;;;51.67;33.63;;;;;;;;;;5091176;28;20586;-61
2022/03/22 03:58:33;;;;;;;47.38;33.85;;;;;;;;;;5090913;28;20047;-60
2022/03/22 04:01:01;;;;;;;42.92;30.55;;;4.70;99.90;;;;;;5070765;28;20035;-60
2022/03/22 04:03:27;;;;;;;49.13;35.33;;;;;;;;;;5091152;28;20492;-60
2022/03/22 04:05:53;;;;;;;42.22;30.42;;;2.80;99.90;;;;;;5089653;28;20055;-60
2022/03/22 04:08:21;;;;;;;44.50;32.30;;;2.70;99.90;;;;;;5072732;28;20120;-60
2022/03/22 04:10:47;;;;;;;44.85;32.08;;;;;;;;;;5089600;28;20047;-60
2022/03/22 04:13:13;;;;;;;47.70;34.45;;;;;;;;;;5092585;28;20062;-60
2022/03/22 04:15:41;;;;;;;47.95;32.10;;;2.50;99.90;;;;;;5091203;28;20039;-60
2022/03/22 04:18:07;;;;;;;41.10;28.58;;;;;;;;;;5091121;28;20204;-60
2022/03/22 04:20:33;;;;;;;47.72;31.90;;;;;;;;;;5091164;28;20047;-60
2022/03/22 04:23:00;;;;;;;54.20;36.47;;;;;;;;;;5091926;28;20050;-59
2022/03/22 04:25:26;;;;;;;63.72;40.83;;;;;;;;;;5093325;28;20062;-59
2022/03/22 04:33:22;;;;;;;56.33;39.72;;;;;;;;;;5095802;28;20446;-59
2022/03/22 04:35:48;;;;;;;58.60;40.03;;;;;;;;;;5095509;28;20127;-59
2022/03/22 04:38:15;;;;;;;59.28;41.60;;;;;;;;;;5096336;28;20043;-59
2022/03/22 04:40:41;;;;;;;58.65;39.20;;;;;;;;;;5096804;28;20294;-59
2022/03/22 04:43:08;;;;;;;59.08;39.08;;;2.50;99.90;;;;;;5097175;28;20036;-58
2022/03/22 04:45:35;;;;;;;59.10;40.88;;;;;;;;;;5096627;28;20032;-59
2022/03/22 04:48:01;;;;;;;57.80;40.83;;;;;;;;;;5095809;28;20260;-58
2022/03/22 04:50:29;;;;;;;59.65;40.75;;;2.60;99.90;;;;;;5094626;28;20643;-58
2022/03/22 04:58:25;;;;;;;54.47;36.83;;;;;;;;;;5096179;28;20147;-58
2022/03/22 05:00:51;;;;;;;61.70;36.70;;;;;;;;;;5094745;28;20085;-58
2022/03/22 05:03:17;;;;;;;58.58;37.60;;;;;;;;;;5094678;28;20675;-57
2022/03/22 05:08:32;;;;;;;54.50;37.40;;;2.50;99.90;;;;;;5094018;28;20107;-58
2022/03/22 05:10:59;;;;;;;50.30;35.22;;;;;;;;;;5096066;28;20047;-58
2022/03/22 05:13:25;;;;;;;53.45;37.00;;;;;;;;;;5094873;28;20032;-58
2022/03/22 05:15:51;;;;;;;60.22;39.28;;;2.50;99.90;;;;;;5095608;28;20055;-58
2022/03/22 05:18:20;;;;;;;52.58;36.22;;;2.30;99.90;;;;;;5094587;28;20043;-58
2022/03/22 05:20:46;;;;;;;50.58;34.63;;;;;;;;;;5094799;28;20039;-58
2022/03/22 05:23:12;;;;;;;49.88;33.35;;;;;;;;;;5094222;28;20691;-58
2022/03/22 05:25:40;;;;;;;49.92;33.97;;;2.30;99.90;;;;;;5094846;28;20572;-58
2022/03/22 05:28:06;;;;;;;51.05;34.08;;;;;;;;;;5093965;28;20036;-58
2022/03/22 05:30:32;;;;;;;55.33;39.15;;;2.40;99.90;;;;;;5093139;28;20453;-58
2022/03/22 05:32:58;;;;;;;48.70;34.28;;;;;;;;;;5094667;28;20430;-59
2022/03/22 05:35:25;;;;;;;52.08;36.65;;;;;;;;;;5093585;28;20047;-59
2022/03/22 05:37:51;;;;;;;57.13;35.60;;;;;;;;;;5093626;28;20081;-59
2022/03/22 05:40:17;;;;;;;51.65;35.65;;;;;;;;;;5093680;28;20035;-59
2022/03/22 05:42:44;;;;;;;49.47;35.58;;;;;;;;;;5092636;28;20761;-59
2022/03/22 05:45:11;;;;;;;52.35;34.35;;;2.20;99.90;;;;;;5094441;28;20503;-58
2022/03/22 05:47:38;;;;;;;47.88;32.08;;;;;;;;;;5092511;28;20622;-59
2022/03/22 05:50:06;;;;;;;46.88;32.13;;;2.30;99.90;;;;;;5093408;28;20377;-59
2022/03/22 05:52:33;;;;;;;49.78;34.08;;;;;;;;;;5093628;28;20039;-59
2022/03/22 05:54:59;;;;;;;57.17;40.30;;;;;;;;;;5094106;28;20132;-59
2022/03/22 05:57:27;;;;;;;48.75;33.72;;;2.60;99.90;;;;;;5093372;28;20036;-59
2022/03/22 05:59:53;;;;;;;48.70;33.38;;;;;;;;;;5092965;28;20050;-59
2022/03/22 06:02:19;;;;;;;58.05;38.97;;;;;;;;;;5092832;28;20059;-59
2022/03/22 06:04:48;;;;;;;58.50;37.83;;;2.80;99.90;;;;;;5093421;28;20724;-60
2022/03/22 06:07:14;;;;;;;52.20;33.72;;;;;;;;;;5094582;28;20039;-59
2022/03/22 06:09:41;;;;;;;52.97;36.17;;;;;;;;;;5092991;28;20050;-59
2022/03/22 06:12:07;;;;;;;50.33;36.08;;;;;;;;;;5093287;28;20047;-59
2022/03/22 06:14:33;;;;;;;49.97;33.78;;;;;;;;;;5093531;28;20035;-58
2022/03/22 06:17:00;;;;;;;46.75;32.75;;;;;;;;;;5094258;28;20035;-59
2022/03/22 06:19:27;;;;;;;58.03;38.28;;;3.30;99.90;;;;;;5093242;28;20044;-59
2022/03/22 06:21:53;;;;;;;47.20;35.25;;;;;;;;;;5092473;28;20035;-59
2022/03/22 06:24:19;;;;;;;52.00;34.35;;;;;;;;;;5092642;28;20047;-59
2022/03/22 06:26:47;;;;;;;47.50;33.78;;;3.60;99.90;;;;;;5094057;28;20533;-59
2022/03/22 06:29:13;;;;;;;46.45;33.33;;;;;;;;;;5073583;28;20051;-60
2022/03/22 06:31:39;;;;;;;44.85;32.35;;;;;;;;;;5091709;28;20035;-59
2022/03/22 06:34:07;;;;;;;45.47;33.15;;;4.20;99.90;;;;;;5093475;28;20044;-59
2022/03/22 06:36:33;;;;;;;44.63;31.27;;;;;;;;;;5093361;28;20043;-59
2022/03/22 06:38:58;;;;;;;44.70;30.50;;;4.60;99.90;;;;;;5073619;28;20031;-59
2022/03/22 06:41:24;;;;;;;40.80;31.05;;;5.30;99.90;;;;;;5092807;28;20261;-59
2022/03/22 06:43:50;;;;;;;42.75;30.85;;;5.60;99.90;;;;;;5090897;28;20082;-59
2022/03/22 06:46:16;;;;;;;40.53;29.25;;;5.80;99.90;;;;;;5094204;28;20108;-59
2022/03/22 06:48:43;;;;;;;36.55;28.60;;;6.20;99.90;;;;;;5091137;28;20039;-58
2022/03/22 06:51:11;;;;;;;39.75;29.27;;;6.90;99.90;;;;;;5091981;28;20051;-59
2022/03/22 06:53:37;;;;;;;43.67;32.83;;;7.10;99.90;;;;;;5075088;28;20047;-59
2022/03/22 06:56:05;;;;;;;38.50;28.52;;;7.50;99.90;;;;;;5093081;28;20052;-59
2022/03/22 06:58:31;;;;;;;38.60;29.00;;;7.40;99.90;;;;;;5092760;28;20043;-59
2022/03/22 07:00:56;;;;;;;37.50;29.05;;;7.50;99.90;;;;;;5093698;28;20089;-59
2022/03/22 07:03:22;;;;;;;37.53;27.70;;;7.30;99.90;;;;;;5092467;28;20063;-58
2022/03/22 07:05:50;;;;;;;34.75;26.88;;;7.50;99.90;;;;;;5094348;28;20058;-56
2022/03/22 07:08:16;;;;;;;35.10;27.83;;;7.20;99.90;;;;;;5075005;28;20054;-59
2022/03/22 07:10:41;;;;;;;41.38;30.70;;;7.10;99.90;;;;;;5074182;28;20075;-59
2022/03/22 07:13:12;;;;;;;42.38;30.55;;;8.20;99.90;;;;;;5093173;28;21364;-59
2022/03/22 07:15:39;;;;;;;43.53;31.98;;;7.30;99.90;;;;;;5094637;28;20471;-59
2022/03/22 07:18:06;;;;;;;43.63;31.50;;;7.50;99.90;;;;;;5094446;28;20459;-59
2022/03/22 07:20:35;;;;;;;46.22;31.83;;;7.50;99.90;;;;;;5091403;28;20040;-59
2022/03/22 07:23:01;;;;;;;41.83;31.33;;;7.70;99.90;;;;;;5072210;28;20051;-59
2022/03/22 07:25:27;;;;;;;40.70;31.70;;;8.00;99.90;;;;;;5093189;28;20043;-60
2022/03/22 07:27:55;;;;;;;45.22;30.65;;;8.50;99.90;;;;;;5091965;28;20038;-59
2022/03/22 07:30:21;;;;;;;42.70;31.60;;;9.10;99.90;;;;;;5091234;28;20035;-58
2022/03/22 07:32:46;;;;;;;39.60;30.90;;;9.60;99.90;;;;;;5092185;28;20589;-59
2022/03/22 07:35:17;;;;;;;36.72;30.15;;;10.20;99.90;;;;;;5092908;28;20039;-59
2022/03/22 07:37:43;;;;;;;40.53;30.75;;;10.90;99.90;;;;;;5091612;28;20122;-59
2022/03/22 07:40:10;;;;;;;41.70;30.88;;;11.20;99.90;;;;;;5092589;28;20039;-59
2022/03/22 07:42:37;;;;;;;40.38;31.77;;;11.60;99.90;;;;;;5090621;28;20063;-59
2022/03/22 07:45:08;;;;;;;40.00;30.40;;;11.70;99.90;;;;;;5108038;27;20644;-58
2022/03/22 07:47:34;;;;;;;41.05;30.55;;;12.10;99.90;;;;;;5091913;28;20050;-57
2022/03/22 07:53:05;;;;;;;38.47;30.30;;;12.00;99.90;;;;;;5091545;28;20039;-59
2022/03/22 07:55:39;;;;;;;42.10;31.40;;;12.40;99.90;;;;;;5091895;28;20126;-59
2022/03/22 07:58:05;;;;;;;40.22;31.00;;;12.90;99.90;;;;;;5090864;28;20035;-59
2022/03/22 08:00:32;;;;;;;41.60;31.08;;;13.50;99.90;;;;;;5091762;28;20039;-58
2022/03/22 08:03:03;;;;;;;40.42;29.80;;;13.50;99.90;;;;;;5090567;28;20068;-59
2022/03/22 08:05:30;;;;;;;43.70;29.08;;;13.90;99.90;;;;;;5089512;28;20476;-59
2022/03/22 08:07:56;;;;;;;35.97;29.33;;;14.30;99.90;;;;;;5093334;28;20122;-59
2022/03/22 08:10:23;;;;;;;43.75;30.05;;;14.70;99.90;;;;;;5090970;28;20536;-58
2022/03/22 08:12:49;;;;;;;41.88;31.27;;;14.70;99.90;;;;;;5091767;28;20111;-59
2022/03/22 08:15:16;;;;;;;41.08;29.20;;;15.00;99.90;;;;;;5093423;28;20455;-59
2022/03/22 08:17:42;;;;;;;34.33;25.60;;;14.80;99.90;;;;;;5093962;28;20074;-58
2022/03/22 08:20:10;;;;;;;39.47;27.90;;;14.60;99.90;;;;;;5091909;28;20454;-59
2022/03/22 08:23:06;;;;;;;30.90;25.48;;;14.40;99.90;;;;;;5092511;28;20964;-58
2022/03/22 08:25:40;;;;;;;34.13;26.80;;;14.30;99.90;;;;;;5007160;28;20102;-59
2022/03/22 08:28:11;;;;;;;32.97;24.63;;;14.00;99.90;;;;;;5007850;28;20055;-58
2022/03/22 08:30:38;;;;;;;33.75;25.95;;;14.00;99.90;;;;;;5005279;28;20073;-58
2022/03/22 08:33:06;;;;;;;30.05;25.05;;;13.80;99.90;;;;;;5006658;28;20572;-58
2022/03/22 08:35:33;;;;;;;35.67;27.10;;;13.60;99.90;;;;;;5005604;28;20151;-59
2022/03/22 08:37:59;;;;;;;37.35;26.02;;;11.40;99.90;;;;;;5007624;28;20056;-59
2022/03/22 08:40:25;;;;;;;34.08;26.10;;;13.60;99.90;;;;;;5007432;28;20042;-58
2022/03/22 08:42:53;;;;;;;38.85;26.42;;;13.30;99.90;;;;;;5006912;28;20049;-58
2022/03/22 08:45:23;;;;;;;37.17;26.27;;;13.40;99.90;;;;;;5007410;28;20037;-58
2022/03/22 08:47:51;;;;;;;32.45;25.77;;;13.40;99.90;;;;;;5007376;28;20532;-59
2022/03/22 08:50:18;;;;;;;38.58;26.30;;;13.50;99.90;;;;;;5006708;28;20233;-59
2022/03/22 08:52:47;;;;;;;34.13;25.40;;;13.70;99.90;;;;;;5005350;28;20038;-58
2022/03/22 08:55:15;;;;;;;37.13;26.02;;;13.60;99.90;;;;;;5006488;28;20055;-58
2022/03/22 08:57:41;;;;;;;33.40;25.60;;;13.50;99.90;;;;;;5007120;28;20053;-59
2022/03/22 09:00:09;;;;;;;37.42;25.88;;;13.80;99.90;;;;;;5001498;28;20041;-59
2022/03/22 09:02:39;;;;;;;34.13;26.73;;;13.60;99.90;;;;;;5070975;28;20043;-59
2022/03/22 09:07:51;;;;;;;36.40;24.92;;;13.90;99.90;;;;;;5090956;28;20127;-58
2022/03/22 09:10:20;;;;;;;35.20;25.95;;;14.10;99.90;;;;;;5090204;28;20335;-58
2022/03/22 09:12:46;;;;;;;35.10;24.92;;;14.40;99.90;;;;;;5094426;28;20039;-59
2022/03/22 09:15:13;;;;;;;31.65;25.83;;;15.00;99.90;;;;;;5095002;28;20028;-59
2022/03/22 09:17:39;;;;;;;35.78;25.38;;;15.70;99.90;;;;;;5095691;28;20090;-59
2022/03/22 09:20:05;;;;;;;29.40;24.15;;;15.60;99.90;;;;;;5094383;28;20134;-61
2022/03/22 09:22:34;;;;;;;34.47;24.40;;;15.80;99.90;;;;;;5093892;28;20129;-60
2022/03/22 09:25:01;;;;;;;31.48;24.77;;;16.00;99.90;;;;;;5075478;28;20043;-58
2022/03/22 09:27:27;;;;;;;32.72;23.90;;;16.10;99.90;;;;;;5095443;28;20042;-58
2022/03/22 09:29:53;;;;;;;31.65;24.55;;;16.30;99.90;;;;;;5094785;28;20040;-59
2022/03/22 09:32:19;;;;;;;32.45;24.13;;;16.60;99.90;;;;;;5094214;28;20092;-59
2022/03/22 09:34:44;;;;;;;33.92;25.48;;;17.00;99.90;;;;;;5093521;28;20047;-59
2022/03/22 09:37:16;;;;;;;71.50;47.40;;;17.20;99.90;;;;;;5093539;28;20039;-59
2022/03/22 09:39:43;;;;;;;965.08;842.53;;;17.70;99.90;;;;;;5093970;28;20071;-58
2022/03/22 09:42:09;;;;;;;798.72;719.63;;;17.40;99.90;;;;;;5093931;28;20369;-58
2022/03/22 09:44:35;;;;;;;574.72;511.05;;;18.10;99.90;;;;;;5075067;28;20051;-59
2022/03/22 09:47:04;;;;;;;37.75;26.10;;;18.20;99.90;;;;;;5095279;28;20070;-59
2022/03/22 09:49:30;;;;;;;30.65;23.42;;;18.60;99.90;;;;;;5092725;28;20307;-59
2022/03/22 09:51:58;;;;;;;37.22;25.73;;;18.60;99.90;;;;;;5094175;28;20047;-58
2022/03/22 09:54:24;;;;;;;33.22;25.17;;;18.60;99.90;;;;;;5092682;28;20043;-58
2022/03/22 09:56:51;;;;;;;30.17;24.08;;;18.90;99.90;;;;;;5093074;28;20435;-59
2022/03/22 09:59:17;;;;;;;29.77;24.08;;;18.50;99.90;;;;;;5075001;28;20084;-58
2022/03/22 10:01:45;;;;;;;32.78;24.02;;;18.20;99.90;;;;;;5094907;28;20523;-58
2022/03/22 10:04:13;;;;;;;33.85;24.00;;;18.00;99.90;;;;;;5093050;28;20078;-58
2022/03/22 10:06:47;;;;;;;29.90;22.52;;;17.80;99.90;;;;;;5092244;28;20043;-58
2022/03/22 10:09:13;;;;;;;29.92;22.83;;;17.60;99.90;;;;;;5093245;28;20040;-58
2022/03/22 10:11:41;;;;;;;34.90;23.77;;;17.60;99.90;;;;;;5093090;28;20088;-58
2022/03/22 10:14:09;;;;;;;28.30;20.90;;;17.50;99.90;;;;;;5092578;28;20923;-57
2022/03/22 10:16:50;;;;;;;33.92;22.30;;;17.50;99.90;;;;;;5092669;28;20127;-59
2022/03/22 10:19:25;;;;;;;29.40;20.60;;;17.50;99.90;;;;;;5093042;28;20168;-58
2022/03/22 10:21:53;;;;;;;29.45;21.27;;;17.40;99.90;;;;;;5073787;28;20028;-58
2022/03/22 10:24:19;;;;;;;31.13;21.55;;;17.30;99.90;;;;;;5093316;28;20047;-58
2022/03/22 10:26:46;;;;;;;35.47;21.08;;;17.30;99.90;;;;;;5092058;28;20039;-59
2022/03/22 10:29:16;;;;;;;35.17;21.50;;;17.50;99.90;;;;;;5093850;28;20730;-58
2022/03/22 10:31:44;;;;;;;26.73;20.70;;;17.40;99.90;;;;;;5091849;28;20063;-58
2022/03/22 10:34:12;;;;;;;33.17;22.75;;;17.70;99.90;;;;;;5093321;28;20086;-58
2022/03/22 10:36:40;;;;;;;31.73;21.38;;;19.80;99.90;;;;;;5091991;28;20043;-57
2022/03/22 10:39:08;;;;;;;31.50;22.00;;;19.30;99.90;;;;;;5093666;28;20120;-58
2022/03/22 10:41:43;;;;;;;35.67;22.77;;;17.90;99.90;;;;;;5091863;28;20031;-58
2022/03/22 10:44:18;;;;;;;31.52;22.98;;;18.10;99.90;;;;;;5093310;28;20105;-58
2022/03/22 10:46:46;;;;;;;29.90;22.58;;;18.60;99.90;;;;;;5093106;28;20449;-58
2022/03/22 10:49:15;;;;;;;26.23;21.65;;;18.20;99.90;;;;;;5092626;28;20471;-57
2022/03/22 10:51:45;;;;;;;32.72;23.95;;;19.10;99.90;;;;;;5092592;28;20063;-57
2022/03/22 10:54:13;;;;;;;30.70;23.23;;;20.30;99.90;;;;;;5091481;28;20385;-57
2022/03/22 10:57:00;;;;;;;33.10;23.13;;;18.40;99.90;;;;;;5092544;28;20086;-57
2022/03/22 10:59:27;;;;;;;29.48;22.15;;;18.60;99.90;;;;;;5094360;28;20074;-57
2022/03/22 11:01:55;;;;;;;30.90;22.10;;;18.10;99.90;;;;;;5093320;28;20043;-58
2022/03/22 11:04:23;;;;;;;30.25;22.25;;;18.80;99.90;;;;;;5093551;28;20070;-57
2022/03/22 11:06:49;;;;;;;31.50;22.67;;;18.80;99.90;;;;;;5092930;28;20047;-57
2022/03/22 11:09:16;;;;;;;31.00;21.70;;;19.00;99.90;;;;;;5092937;28;21015;-57
2022/03/22 11:11:44;;;;;;;26.15;21.23;;;19.80;99.90;;;;;;5092228;28;20051;-57
2022/03/22 11:14:15;;;;;;;30.63;21.35;;;20.10;99.90;;;;;;5074469;28;20152;-57
2022/03/22 11:16:43;;;;;;;28.05;22.10;;;19.30;99.90;;;;;;5092894;28;20552;-58
2022/03/22 11:19:10;;;;;;;31.23;22.13;;;19.40;99.90;;;;;;5091959;28;20397;-57
2022/03/22 11:21:38;;;;;;;30.73;22.15;;;19.50;99.90;;;;;;5091740;28;20135;-57
2022/03/22 11:24:12;;;;;;;31.08;22.58;;;19.30;99.90;;;;;;5091698;28;20633;-58
2022/03/22 11:26:46;;;;;;;29.02;20.20;;;19.40;99.90;;;;;;5091752;28;20040;-57
2022/03/22 11:29:17;;;;;;;28.27;19.42;;;19.40;99.90;;;;;;5089825;28;20051;-57
2022/03/22 11:34:09;;;;;;;31.90;20.90;;;19.50;99.90;;;;;;5089966;28;20040;-57
2022/03/22 11:34:30;;;;;;;30.95;21.98;;;19.70;99.90;;;;;;5091507;28;20048;-58
2022/03/22 11:36:58;;;;;;;27.15;19.92;;;19.60;99.90;;;;;;5091738;28;20039;-57
2022/03/22 11:42:18;;;;;;;31.95;20.35;;;19.30;99.90;;;;;;5091069;28;20104;-57
2022/03/22 11:44:58;;;;;;;29.77;21.65;;;19.50;99.90;;;;;;5073614;28;20032;-57
2022/03/22 11:47:37;;;;;;;29.58;20.70;;;19.50;99.90;;;;;;5091927;28;20062;-57
2022/03/22 11:50:05;;;;;;;30.90;19.85;;;19.60;99.90;;;;;;5091653;28;20078;-57
2022/03/22 11:52:39;;;;;;;27.90;20.27;;;19.70;99.90;;;;;;5090933;28;20067;-57
2022/03/22 11:55:16;;;;;;;31.30;21.58;;;19.60;99.90;;;;;;5090748;28;20039;-58
2022/03/22 11:57:44;;;;;;;31.20;19.92;;;19.60;99.90;;;;;;5090552;28;20039;-58
2022/03/22 12:00:11;;;;;;;29.75;21.73;;;21.90;99.90;;;;;;5091799;28;20679;-58
2022/03/22 12:02:39;;;;;;;28.02;20.75;;;19.60;99.90;;;;;;5090183;28;20043;-57
2022/03/22 12:05:07;;;;;;;29.52;19.95;;;19.60;99.90;;;;;;5090967;28;20126;-57
2022/03/22 12:07:37;;;;;;;29.50;20.63;;;19.70;99.90;;;;;;5090513;28;20092;-58
2022/03/22 12:10:06;;;;;;;30.70;20.75;;;21.70;99.90;;;;;;5091872;28;20112;-57
2022/03/22 12:12:34;;;;;;;27.80;19.38;;;19.70;99.90;;;;;;5091981;28;20050;-57
2022/03/22 12:15:01;;;;;;;30.73;18.63;;;21.40;99.90;;;;;;5093515;28;20612;-57
2022/03/22 12:17:29;;;;;;;30.58;19.48;;;21.80;99.90;;;;;;5093626;28;20051;-57
2022/03/22 12:19:59;;;;;;;29.88;20.23;;;19.60;99.90;;;;;;5073530;28;20089;-57
2022/03/22 12:22:25;;;;;;;29.70;19.45;;;19.70;99.90;;;;;;5091730;28;20038;-57
2022/03/22 12:24:51;;;;;;;29.02;19.30;;;19.60;99.90;;;;;;5091038;28;20508;-57
2022/03/22 12:27:17;;;;;;;32.30;20.10;;;20.70;99.90;;;;;;5092293;28;20126;-57
2022/03/22 12:29:47;;;;;;;29.20;19.20;;;20.80;99.90;;;;;;5089965;28;20043;-56
2022/03/22 12:32:16;;;;;;;31.65;19.35;;;19.60;99.90;;;;;;5090397;28;20156;-58
2022/03/22 12:34:44;;;;;;;31.60;19.27;;;19.60;99.90;;;;;;5090131;28;20039;-58
2022/03/22 12:37:12;;;;;;;33.22;19.33;;;19.50;99.90;;;;;;5071811;28;20055;-57
2022/03/22 12:39:41;;;;;;;32.92;20.70;;;20.70;99.90;;;;;;5090036;28;20046;-58
2022/03/22 12:42:08;;;;;;;31.80;20.77;;;19.50;99.90;;;;;;5090361;28;20403;-56
2022/03/22 12:44:35;;;;;;;31.42;21.13;;;21.70;99.90;;;;;;5089791;28;20031;-58
2022/03/22 12:47:01;;;;;;;31.83;20.67;;;19.50;99.90;;;;;;5108923;27;20039;-56
2022/03/22 12:49:30;;;;;;;31.10;20.80;;;19.50;99.90;;;;;;5093759;28;20118;-56
2022/03/22 12:51:56;;;;;;;27.73;19.92;;;19.70;99.90;;;;;;5094299;28;21118;-56
2022/03/22 12:54:23;;;;;;;29.50;19.45;;;19.70;99.90;;;;;;5095142;28;20131;-58
2022/03/22 12:56:49;;;;;;;31.50;19.90;;;19.70;99.90;;;;;;5094023;28;20031;-57
2022/03/22 12:59:22;;;;;;;30.80;19.10;;;19.60;99.90;;;;;;5094057;28;20402;-56
2022/03/22 13:01:57;;;;;;;34.63;21.15;;;19.70;99.90;;;;;;5075345;28;20059;-56
2022/03/22 13:04:29;;;;;;;29.17;20.48;;;19.90;99.90;;;;;;5094699;28;20357;-55
2022/03/22 13:07:00;;;;;;;28.73;20.10;;;19.60;99.90;;;;;;5094944;28;20915;-59
2022/03/22 13:12:16;;;;;;;33.60;20.20;;;20.60;99.90;;;;;;5093201;28;20820;-55
2022/03/22 13:17:29;;;;;;;31.15;19.38;;;19.60;99.90;;;;;;5094265;28;20062;-55
2022/03/22 13:19:55;;;;;;;32.03;19.65;;;19.60;99.90;;;;;;5094678;28;20043;-55
2022/03/22 13:22:25;;;;;;;33.53;20.25;;;19.60;99.90;;;;;;5095793;28;20040;-55
2022/03/22 13:25:05;;;;;;;31.65;20.38;;;19.70;99.90;;;;;;5076145;28;20124;-55
2022/03/22 13:27:30;;;;;;;34.33;20.27;;;20.30;99.90;;;;;;5094887;28;20858;-55
2022/03/22 13:29:56;;;;;;;28.48;19.95;;;19.70;99.90;;;;;;5096562;28;20047;-53
2022/03/22 13:32:30;;;;;;;32.03;20.25;;;19.50;99.90;;;;;;5095076;28;20036;-54
2022/03/22 13:35:05;;;;;;;36.13;21.00;;;19.60;99.90;;;;;;5095422;28;20794;-54
2022/03/22 13:37:46;;;;;;;38.22;20.67;;;19.80;99.90;;;;;;5095299;28;20067;-53
2022/03/22 13:40:12;;;;;;;33.80;20.67;;;19.50;99.90;;;;;;5095476;28;20044;-55
2022/03/22 13:42:54;;;;;;;33.03;20.38;;;19.60;99.90;;;;;;5093851;28;20067;-54